sensor_id;sensor_type;location;lat;lon;timestamp;P1;durP1;ratioP1;P2;durP2;ratioP2
72273;SDS011;60208;48.692;8.948;2022-12-11T00:01:24;23.85;;;14.15;;
72273;SDS011;60208;48.692;8.948;2022-12-11T00:03:49;24.95;;;13.32;;
72273;SDS011;60208;48.692;8.948;2022-12-11T00:06:15;22.75;;;13.52;;
72273;SDS011;60208;48.692;8.948;2022-12-11T00:08:42;20.70;;;13.18;;
72273;SDS011;60208;48.692;8.948;2022-12-11T00:11:08;23.98;;;13.45;;
72273;SDS011;60208;48.692;8.948;2022-12-11T00:13:38;25.00;;;14.40;;
72273;SDS011;60208;48.692;8.948;2022-12-11T00:16:04;25.40;;;14.95;;
72273;SDS011;60208;48.692;8.948;2022-12-11T00:18:29;26.73;;;14.88;;
72273;SDS011;60208;48.692;8.948;2022-12-11T00:20:58;24.75;;;14.88;;
72273;SDS011;60208;48.692;8.948;2022-12-11T00:23:25;24.00;;;14.55;;
72273;SDS011;60208;48.692;8.948;2022-12-11T00:25:50;24.20;;;14.25;;
72273;SDS011;60208;48.692;8.948;2022-12-11T00:28:16;67.32;;;34.53;;
72273;SDS011;60208;48.692;8.948;2022-12-11T00:30:44;23.27;;;14.77;;
72273;SDS011;60208;48.692;8.948;2022-12-11T00:33:10;23.35;;;13.60;;
72273;SDS011;60208;48.692;8.948;2022-12-11T00:35:37;20.52;;;12.38;;
72273;SDS011;60208;48.692;8.948;2022-12-11T00:38:04;22.45;;;14.02;;
72273;SDS011;60208;48.692;8.948;2022-12-11T00:40:32;22.40;;;13.93;;
72273;SDS011;60208;48.692;8.948;2022-12-11T00:42:58;23.70;;;14.23;;
72273;SDS011;60208;48.692;8.948;2022-12-11T00:45:24;23.58;;;14.85;;
72273;SDS011;60208;48.692;8.948;2022-12-11T00:47:49;30.38;;;17.50;;
72273;SDS011;60208;48.692;8.948;2022-12-11T00:50:14;34.28;;;18.00;;
72273;SDS011;60208;48.692;8.948;2022-12-11T00:52:40;34.28;;;18.05;;
72273;SDS011;60208;48.692;8.948;2022-12-11T00:55:05;32.60;;;19.05;;
72273;SDS011;60208;48.692;8.948;2022-12-11T00:57:31;33.67;;;18.70;;
72273;SDS011;60208;48.692;8.948;2022-12-11T00:59:56;32.53;;;18.17;;
72273;SDS011;60208;48.692;8.948;2022-12-11T01:02:21;31.40;;;17.45;;
72273;SDS011;60208;48.692;8.948;2022-12-11T01:04:47;32.53;;;17.30;;
72273;SDS011;60208;48.692;8.948;2022-12-11T01:07:12;25.98;;;15.60;;
72273;SDS011;60208;48.692;8.948;2022-12-11T01:09:37;28.92;;;15.43;;
72273;SDS011;60208;48.692;8.948;2022-12-11T01:12:21;27.05;;;15.73;;
72273;SDS011;60208;48.692;8.948;2022-12-11T01:14:47;26.42;;;15.48;;
72273;SDS011;60208;48.692;8.948;2022-12-11T01:17:12;27.13;;;15.70;;
72273;SDS011;60208;48.692;8.948;2022-12-11T01:19:37;31.25;;;16.75;;
72273;SDS011;60208;48.692;8.948;2022-12-11T01:22:03;28.60;;;16.83;;
72273;SDS011;60208;48.692;8.948;2022-12-11T01:24:28;30.70;;;17.25;;
72273;SDS011;60208;48.692;8.948;2022-12-11T01:26:53;25.05;;;15.98;;
72273;SDS011;60208;48.692;8.948;2022-12-11T01:29:19;26.73;;;17.08;;
72273;SDS011;60208;48.692;8.948;2022-12-11T01:31:44;25.20;;;15.65;;
72273;SDS011;60208;48.692;8.948;2022-12-11T01:34:09;23.92;;;14.43;;
72273;SDS011;60208;48.692;8.948;2022-12-11T01:36:35;23.08;;;13.73;;
72273;SDS011;60208;48.692;8.948;2022-12-11T01:39:00;19.05;;;12.27;;
72273;SDS011;60208;48.692;8.948;2022-12-11T01:41:25;20.80;;;12.52;;
72273;SDS011;60208;48.692;8.948;2022-12-11T01:43:55;18.27;;;12.00;;
72273;SDS011;60208;48.692;8.948;2022-12-11T01:46:20;18.50;;;12.23;;
72273;SDS011;60208;48.692;8.948;2022-12-11T01:48:45;19.35;;;12.77;;
72273;SDS011;60208;48.692;8.948;2022-12-11T01:51:11;18.15;;;11.57;;
72273;SDS011;60208;48.692;8.948;2022-12-11T01:53:38;18.23;;;11.52;;
72273;SDS011;60208;48.692;8.948;2022-12-11T01:56:05;19.67;;;12.02;;
72273;SDS011;60208;48.692;8.948;2022-12-11T01:58:32;19.15;;;11.25;;
72273;SDS011;60208;48.692;8.948;2022-12-11T02:00:59;18.25;;;11.85;;
72273;SDS011;60208;48.692;8.948;2022-12-11T02:03:25;19.02;;;11.65;;
72273;SDS011;60208;48.692;8.948;2022-12-11T02:05:51;19.27;;;11.98;;
72273;SDS011;60208;48.692;8.948;2022-12-11T02:08:16;21.88;;;13.00;;
72273;SDS011;60208;48.692;8.948;2022-12-11T02:13:31;18.13;;;12.32;;
72273;SDS011;60208;48.692;8.948;2022-12-11T02:16:35;19.80;;;11.93;;
72273;SDS011;60208;48.692;8.948;2022-12-11T02:21:37;21.27;;;13.80;;
72273;SDS011;60208;48.692;8.948;2022-12-11T02:32:10;21.65;;;12.90;;
72273;SDS011;60208;48.692;8.948;2022-12-11T02:34:42;18.33;;;12.85;;
72273;SDS011;60208;48.692;8.948;2022-12-11T02:37:14;20.17;;;13.27;;
72273;SDS011;60208;48.692;8.948;2022-12-11T02:39:41;19.83;;;12.73;;
72273;SDS011;60208;48.692;8.948;2022-12-11T02:42:08;19.40;;;12.20;;
72273;SDS011;60208;48.692;8.948;2022-12-11T02:44:35;20.25;;;11.93;;
72273;SDS011;60208;48.692;8.948;2022-12-11T02:47:04;18.23;;;11.35;;
72273;SDS011;60208;48.692;8.948;2022-12-11T02:49:32;15.95;;;10.45;;
72273;SDS011;60208;48.692;8.948;2022-12-11T02:51:58;16.25;;;10.82;;
72273;SDS011;60208;48.692;8.948;2022-12-11T02:54:29;17.90;;;11.00;;
72273;SDS011;60208;48.692;8.948;2022-12-11T02:56:58;15.75;;;9.68;;
72273;SDS011;60208;48.692;8.948;2022-12-11T02:59:28;16.92;;;10.45;;
72273;SDS011;60208;48.692;8.948;2022-12-11T03:01:58;15.05;;;9.73;;
72273;SDS011;60208;48.692;8.948;2022-12-11T03:04:24;15.60;;;9.65;;
72273;SDS011;60208;48.692;8.948;2022-12-11T03:06:50;14.32;;;9.55;;
72273;SDS011;60208;48.692;8.948;2022-12-11T03:09:19;15.10;;;9.95;;
72273;SDS011;60208;48.692;8.948;2022-12-11T03:11:45;14.43;;;9.88;;
72273;SDS011;60208;48.692;8.948;2022-12-11T03:14:11;14.55;;;9.85;;
72273;SDS011;60208;48.692;8.948;2022-12-11T03:16:38;15.13;;;10.13;;
72273;SDS011;60208;48.692;8.948;2022-12-11T03:19:14;14.23;;;10.30;;
72273;SDS011;60208;48.692;8.948;2022-12-11T03:21:49;15.63;;;10.18;;
72273;SDS011;60208;48.692;8.948;2022-12-11T03:24:39;15.68;;;10.23;;
72273;SDS011;60208;48.692;8.948;2022-12-11T03:27:07;15.15;;;10.52;;
72273;SDS011;60208;48.692;8.948;2022-12-11T03:29:39;15.57;;;10.32;;
72273;SDS011;60208;48.692;8.948;2022-12-11T03:32:12;16.17;;;10.30;;
72273;SDS011;60208;48.692;8.948;2022-12-11T03:34:44;12.93;;;7.70;;
72273;SDS011;60208;48.692;8.948;2022-12-11T03:37:17;15.65;;;9.93;;
72273;SDS011;60208;48.692;8.948;2022-12-11T03:39:45;18.67;;;11.32;;
72273;SDS011;60208;48.692;8.948;2022-12-11T03:42:13;16.77;;;10.30;;
72273;SDS011;60208;48.692;8.948;2022-12-11T03:44:39;16.20;;;9.95;;
72273;SDS011;60208;48.692;8.948;2022-12-11T03:47:06;16.60;;;10.70;;
72273;SDS011;60208;48.692;8.948;2022-12-11T03:49:34;14.82;;;10.10;;
72273;SDS011;60208;48.692;8.948;2022-12-11T03:52:03;15.73;;;9.82;;
72273;SDS011;60208;48.692;8.948;2022-12-11T03:54:29;16.00;;;10.35;;
72273;SDS011;60208;48.692;8.948;2022-12-11T03:56:56;18.23;;;10.98;;
72273;SDS011;60208;48.692;8.948;2022-12-11T03:59:22;14.98;;;10.57;;
72273;SDS011;60208;48.692;8.948;2022-12-11T04:01:47;15.60;;;10.38;;
72273;SDS011;60208;48.692;8.948;2022-12-11T04:04:13;15.35;;;10.60;;
72273;SDS011;60208;48.692;8.948;2022-12-11T04:06:38;16.10;;;10.48;;
72273;SDS011;60208;48.692;8.948;2022-12-11T04:09:03;16.02;;;10.45;;
72273;SDS011;60208;48.692;8.948;2022-12-11T04:11:29;15.43;;;10.15;;
72273;SDS011;60208;48.692;8.948;2022-12-11T04:14:05;16.70;;;10.68;;
72273;SDS011;60208;48.692;8.948;2022-12-11T04:16:51;15.32;;;10.18;;
72273;SDS011;60208;48.692;8.948;2022-12-11T04:19:17;15.80;;;10.38;;
72273;SDS011;60208;48.692;8.948;2022-12-11T04:22:01;17.55;;;10.27;;
72273;SDS011;60208;48.692;8.948;2022-12-11T04:24:48;15.63;;;10.05;;
72273;SDS011;60208;48.692;8.948;2022-12-11T04:27:14;14.73;;;9.85;;
72273;SDS011;60208;48.692;8.948;2022-12-11T04:30:00;15.02;;;9.93;;
72273;SDS011;60208;48.692;8.948;2022-12-11T04:32:26;14.02;;;10.15;;
72273;SDS011;60208;48.692;8.948;2022-12-11T04:34:51;14.68;;;9.70;;
72273;SDS011;60208;48.692;8.948;2022-12-11T04:37:17;16.33;;;10.70;;
72273;SDS011;60208;48.692;8.948;2022-12-11T04:39:42;17.10;;;10.45;;
72273;SDS011;60208;48.692;8.948;2022-12-11T04:42:07;14.02;;;9.80;;
72273;SDS011;60208;48.692;8.948;2022-12-11T04:44:33;16.98;;;10.30;;
72273;SDS011;60208;48.692;8.948;2022-12-11T04:46:58;16.85;;;10.65;;
72273;SDS011;60208;48.692;8.948;2022-12-11T04:49:23;16.67;;;10.65;;
72273;SDS011;60208;48.692;8.948;2022-12-11T04:51:49;16.77;;;10.77;;
72273;SDS011;60208;48.692;8.948;2022-12-11T04:54:14;16.80;;;10.80;;
72273;SDS011;60208;48.692;8.948;2022-12-11T04:56:39;17.38;;;11.18;;
72273;SDS011;60208;48.692;8.948;2022-12-11T04:59:04;15.60;;;10.25;;
72273;SDS011;60208;48.692;8.948;2022-12-11T05:01:30;18.38;;;11.27;;
72273;SDS011;60208;48.692;8.948;2022-12-11T05:03:57;18.20;;;11.05;;
72273;SDS011;60208;48.692;8.948;2022-12-11T05:06:23;16.05;;;11.07;;
72273;SDS011;60208;48.692;8.948;2022-12-11T05:08:48;16.95;;;10.75;;
72273;SDS011;60208;48.692;8.948;2022-12-11T05:11:14;16.77;;;10.88;;
72273;SDS011;60208;48.692;8.948;2022-12-11T05:13:40;18.30;;;11.30;;
72273;SDS011;60208;48.692;8.948;2022-12-11T05:16:06;16.30;;;11.20;;
72273;SDS011;60208;48.692;8.948;2022-12-11T05:18:32;17.30;;;10.90;;
72273;SDS011;60208;48.692;8.948;2022-12-11T05:20:58;17.75;;;10.93;;
72273;SDS011;60208;48.692;8.948;2022-12-11T05:23:28;15.85;;;10.40;;
72273;SDS011;60208;48.692;8.948;2022-12-11T05:25:55;15.65;;;10.30;;
72273;SDS011;60208;48.692;8.948;2022-12-11T05:28:22;15.18;;;10.10;;
72273;SDS011;60208;48.692;8.948;2022-12-11T05:30:54;16.95;;;11.73;;
72273;SDS011;60208;48.692;8.948;2022-12-11T05:33:20;16.13;;;10.65;;
72273;SDS011;60208;48.692;8.948;2022-12-11T05:35:46;15.88;;;10.27;;
72273;SDS011;60208;48.692;8.948;2022-12-11T05:38:12;17.88;;;11.18;;
72273;SDS011;60208;48.692;8.948;2022-12-11T05:40:37;17.77;;;11.32;;
72273;SDS011;60208;48.692;8.948;2022-12-11T05:43:03;18.58;;;11.40;;
72273;SDS011;60208;48.692;8.948;2022-12-11T05:45:28;17.48;;;11.13;;
72273;SDS011;60208;48.692;8.948;2022-12-11T05:47:53;17.95;;;11.40;;
72273;SDS011;60208;48.692;8.948;2022-12-11T05:50:19;19.08;;;11.43;;
72273;SDS011;60208;48.692;8.948;2022-12-11T05:52:44;16.33;;;10.77;;
72273;SDS011;60208;48.692;8.948;2022-12-11T05:55:09;16.55;;;10.88;;
72273;SDS011;60208;48.692;8.948;2022-12-11T05:57:35;20.45;;;11.55;;
72273;SDS011;60208;48.692;8.948;2022-12-11T06:00:00;18.10;;;11.10;;
72273;SDS011;60208;48.692;8.948;2022-12-11T06:02:25;19.80;;;11.98;;
72273;SDS011;60208;48.692;8.948;2022-12-11T06:04:52;19.60;;;12.07;;
72273;SDS011;60208;48.692;8.948;2022-12-11T06:07:17;17.88;;;11.52;;
72273;SDS011;60208;48.692;8.948;2022-12-11T06:09:42;20.15;;;12.05;;
72273;SDS011;60208;48.692;8.948;2022-12-11T06:12:08;19.77;;;11.80;;
72273;SDS011;60208;48.692;8.948;2022-12-11T06:14:33;21.23;;;11.98;;
72273;SDS011;60208;48.692;8.948;2022-12-11T06:16:59;18.58;;;11.52;;
72273;SDS011;60208;48.692;8.948;2022-12-11T06:19:25;20.92;;;12.52;;
72273;SDS011;60208;48.692;8.948;2022-12-11T06:21:50;19.15;;;11.60;;
72273;SDS011;60208;48.692;8.948;2022-12-11T06:24:16;21.92;;;13.02;;
72273;SDS011;60208;48.692;8.948;2022-12-11T06:26:41;19.45;;;11.82;;
72273;SDS011;60208;48.692;8.948;2022-12-11T06:29:06;20.95;;;12.07;;
72273;SDS011;60208;48.692;8.948;2022-12-11T06:31:32;20.27;;;12.63;;
72273;SDS011;60208;48.692;8.948;2022-12-11T06:33:57;23.25;;;13.02;;
72273;SDS011;60208;48.692;8.948;2022-12-11T06:36:23;19.95;;;12.10;;
72273;SDS011;60208;48.692;8.948;2022-12-11T06:38:48;18.98;;;11.38;;
72273;SDS011;60208;48.692;8.948;2022-12-11T06:41:14;21.00;;;12.15;;
72273;SDS011;60208;48.692;8.948;2022-12-11T06:43:40;22.98;;;13.38;;
72273;SDS011;60208;48.692;8.948;2022-12-11T06:46:08;22.15;;;12.63;;
72273;SDS011;60208;48.692;8.948;2022-12-11T06:48:34;22.25;;;13.02;;
72273;SDS011;60208;48.692;8.948;2022-12-11T06:51:04;22.67;;;13.32;;
72273;SDS011;60208;48.692;8.948;2022-12-11T06:53:30;22.75;;;13.27;;
72273;SDS011;60208;48.692;8.948;2022-12-11T06:56:00;23.42;;;13.00;;
72273;SDS011;60208;48.692;8.948;2022-12-11T06:58:26;23.77;;;13.27;;
72273;SDS011;60208;48.692;8.948;2022-12-11T07:00:51;20.40;;;12.75;;
72273;SDS011;60208;48.692;8.948;2022-12-11T07:03:17;23.70;;;13.95;;
72273;SDS011;60208;48.692;8.948;2022-12-11T07:05:42;21.17;;;11.88;;
72273;SDS011;60208;48.692;8.948;2022-12-11T07:08:07;24.95;;;13.82;;
72273;SDS011;60208;48.692;8.948;2022-12-11T07:10:33;21.90;;;14.20;;
72273;SDS011;60208;48.692;8.948;2022-12-11T07:12:58;26.10;;;14.80;;
72273;SDS011;60208;48.692;8.948;2022-12-11T07:15:23;36.83;;;22.40;;
72273;SDS011;60208;48.692;8.948;2022-12-11T07:17:49;28.05;;;16.55;;
72273;SDS011;60208;48.692;8.948;2022-12-11T07:20:14;24.65;;;14.55;;
72273;SDS011;60208;48.692;8.948;2022-12-11T07:22:39;25.23;;;12.93;;
72273;SDS011;60208;48.692;8.948;2022-12-11T07:25:05;23.27;;;14.75;;
72273;SDS011;60208;48.692;8.948;2022-12-11T07:27:30;25.05;;;15.25;;
72273;SDS011;60208;48.692;8.948;2022-12-11T07:29:56;23.85;;;14.80;;
72273;SDS011;60208;48.692;8.948;2022-12-11T07:32:21;27.70;;;15.88;;
72273;SDS011;60208;48.692;8.948;2022-12-11T07:34:47;28.60;;;16.15;;
72273;SDS011;60208;48.692;8.948;2022-12-11T07:37:13;25.98;;;14.98;;
72273;SDS011;60208;48.692;8.948;2022-12-11T07:39:38;23.70;;;13.15;;
72273;SDS011;60208;48.692;8.948;2022-12-11T07:42:03;23.80;;;14.68;;
72273;SDS011;60208;48.692;8.948;2022-12-11T07:44:29;25.35;;;14.45;;
72273;SDS011;60208;48.692;8.948;2022-12-11T07:46:54;25.20;;;14.32;;
72273;SDS011;60208;48.692;8.948;2022-12-11T07:49:20;24.02;;;14.20;;
72273;SDS011;60208;48.692;8.948;2022-12-11T07:51:45;24.55;;;13.25;;
72273;SDS011;60208;48.692;8.948;2022-12-11T07:54:11;25.55;;;13.73;;
72273;SDS011;60208;48.692;8.948;2022-12-11T07:56:40;29.25;;;16.08;;
72273;SDS011;60208;48.692;8.948;2022-12-11T07:59:06;25.75;;;15.30;;
72273;SDS011;60208;48.692;8.948;2022-12-11T08:01:33;24.80;;;13.88;;
72273;SDS011;60208;48.692;8.948;2022-12-11T08:04:00;25.75;;;14.40;;
72273;SDS011;60208;48.692;8.948;2022-12-11T08:06:30;30.48;;;18.40;;
72273;SDS011;60208;48.692;8.948;2022-12-11T08:08:56;32.25;;;18.15;;
72273;SDS011;60208;48.692;8.948;2022-12-11T08:11:23;24.90;;;14.75;;
72273;SDS011;60208;48.692;8.948;2022-12-11T08:13:49;23.77;;;15.07;;
72273;SDS011;60208;48.692;8.948;2022-12-11T08:16:15;22.95;;;15.55;;
72273;SDS011;60208;48.692;8.948;2022-12-11T08:18:41;22.27;;;13.85;;
72273;SDS011;60208;48.692;8.948;2022-12-11T08:21:09;18.85;;;12.07;;
72273;SDS011;60208;48.692;8.948;2022-12-11T08:23:35;22.13;;;12.68;;
72273;SDS011;60208;48.692;8.948;2022-12-11T08:26:01;21.05;;;12.73;;
72273;SDS011;60208;48.692;8.948;2022-12-11T08:28:28;22.75;;;13.90;;
72273;SDS011;60208;48.692;8.948;2022-12-11T08:30:54;19.98;;;12.48;;
72273;SDS011;60208;48.692;8.948;2022-12-11T08:33:20;19.58;;;12.25;;
72273;SDS011;60208;48.692;8.948;2022-12-11T08:35:45;17.08;;;11.63;;
72273;SDS011;60208;48.692;8.948;2022-12-11T08:38:11;19.08;;;11.93;;
72273;SDS011;60208;48.692;8.948;2022-12-11T08:40:36;19.00;;;12.15;;
72273;SDS011;60208;48.692;8.948;2022-12-11T08:43:02;21.88;;;12.52;;
72273;SDS011;60208;48.692;8.948;2022-12-11T08:45:27;19.83;;;12.48;;
72273;SDS011;60208;48.692;8.948;2022-12-11T08:47:53;21.00;;;12.27;;
72273;SDS011;60208;48.692;8.948;2022-12-11T08:50:18;19.25;;;11.95;;
72273;SDS011;60208;48.692;8.948;2022-12-11T08:52:43;21.30;;;12.32;;
72273;SDS011;60208;48.692;8.948;2022-12-11T08:55:09;19.88;;;12.60;;
72273;SDS011;60208;48.692;8.948;2022-12-11T08:57:34;22.30;;;14.48;;
72273;SDS011;60208;48.692;8.948;2022-12-11T09:00:00;20.55;;;13.30;;
72273;SDS011;60208;48.692;8.948;2022-12-11T09:02:25;24.75;;;14.60;;
72273;SDS011;60208;48.692;8.948;2022-12-11T09:04:50;23.95;;;16.05;;
72273;SDS011;60208;48.692;8.948;2022-12-11T09:07:16;24.00;;;14.20;;
72273;SDS011;60208;48.692;8.948;2022-12-11T09:09:41;22.05;;;13.85;;
72273;SDS011;60208;48.692;8.948;2022-12-11T09:12:06;23.52;;;14.00;;
72273;SDS011;60208;48.692;8.948;2022-12-11T09:14:32;22.08;;;13.48;;
72273;SDS011;60208;48.692;8.948;2022-12-11T09:16:57;23.95;;;14.63;;
72273;SDS011;60208;48.692;8.948;2022-12-11T09:19:22;22.40;;;13.98;;
72273;SDS011;60208;48.692;8.948;2022-12-11T09:21:48;22.45;;;14.10;;
72273;SDS011;60208;48.692;8.948;2022-12-11T09:24:13;21.65;;;13.68;;
72273;SDS011;60208;48.692;8.948;2022-12-11T09:26:39;20.75;;;13.48;;
72273;SDS011;60208;48.692;8.948;2022-12-11T09:29:05;21.60;;;13.15;;
72273;SDS011;60208;48.692;8.948;2022-12-11T09:31:32;21.85;;;13.95;;
72273;SDS011;60208;48.692;8.948;2022-12-11T09:34:00;22.73;;;13.50;;
72273;SDS011;60208;48.692;8.948;2022-12-11T09:36:26;24.33;;;14.18;;
72273;SDS011;60208;48.692;8.948;2022-12-11T09:38:52;23.60;;;14.77;;
72273;SDS011;60208;48.692;8.948;2022-12-11T09:46:23;23.70;;;13.68;;
72273;SDS011;60208;48.692;8.948;2022-12-11T09:48:48;21.63;;;13.77;;
72273;SDS011;60208;48.692;8.948;2022-12-11T09:53:54;22.88;;;14.65;;
72273;SDS011;60208;48.692;8.948;2022-12-11T09:56:23;23.38;;;14.48;;
72273;SDS011;60208;48.692;8.948;2022-12-11T10:01:49;20.80;;;13.60;;
72273;SDS011;60208;48.692;8.948;2022-12-11T10:09:14;22.33;;;14.02;;
72273;SDS011;60208;48.692;8.948;2022-12-11T10:14:26;24.08;;;13.45;;
72273;SDS011;60208;48.692;8.948;2022-12-11T10:17:01;21.92;;;13.23;;
72273;SDS011;60208;48.692;8.948;2022-12-11T10:19:31;20.27;;;13.02;;
72273;SDS011;60208;48.692;8.948;2022-12-11T10:21:57;19.05;;;12.70;;
72273;SDS011;60208;48.692;8.948;2022-12-11T10:24:38;21.77;;;13.15;;
72273;SDS011;60208;48.692;8.948;2022-12-11T10:27:12;21.45;;;12.80;;
72273;SDS011;60208;48.692;8.948;2022-12-11T10:29:56;18.98;;;12.45;;
72273;SDS011;60208;48.692;8.948;2022-12-11T10:32:30;20.95;;;13.13;;
72273;SDS011;60208;48.692;8.948;2022-12-11T10:35:25;20.00;;;12.75;;
72273;SDS011;60208;48.692;8.948;2022-12-11T10:37:54;20.90;;;13.38;;
72273;SDS011;60208;48.692;8.948;2022-12-11T10:40:23;17.75;;;12.13;;
72273;SDS011;60208;48.692;8.948;2022-12-11T10:42:53;20.67;;;12.85;;
72273;SDS011;60208;48.692;8.948;2022-12-11T10:45:18;20.50;;;12.90;;
72273;SDS011;60208;48.692;8.948;2022-12-11T10:47:44;19.70;;;12.18;;
72273;SDS011;60208;48.692;8.948;2022-12-11T10:50:24;18.70;;;11.90;;
72273;SDS011;60208;48.692;8.948;2022-12-11T10:52:50;18.48;;;12.15;;
72273;SDS011;60208;48.692;8.948;2022-12-11T10:55:20;20.33;;;13.85;;
72273;SDS011;60208;48.692;8.948;2022-12-11T10:57:58;19.20;;;12.68;;
72273;SDS011;60208;48.692;8.948;2022-12-11T11:03:01;18.35;;;12.55;;
72273;SDS011;60208;48.692;8.948;2022-12-11T11:05:35;17.85;;;12.75;;
72273;SDS011;60208;48.692;8.948;2022-12-11T11:08:02;19.95;;;12.77;;
72273;SDS011;60208;48.692;8.948;2022-12-11T11:10:27;19.23;;;11.90;;
72273;SDS011;60208;48.692;8.948;2022-12-11T11:12:59;19.23;;;12.50;;
72273;SDS011;60208;48.692;8.948;2022-12-11T11:15:26;21.50;;;13.75;;
72273;SDS011;60208;48.692;8.948;2022-12-11T11:17:53;20.00;;;13.30;;
72273;SDS011;60208;48.692;8.948;2022-12-11T11:20:21;20.38;;;13.55;;
72273;SDS011;60208;48.692;8.948;2022-12-11T11:22:50;20.30;;;13.52;;
72273;SDS011;60208;48.692;8.948;2022-12-11T11:25:24;20.38;;;13.55;;
72273;SDS011;60208;48.692;8.948;2022-12-11T11:27:55;20.05;;;13.27;;
72273;SDS011;60208;48.692;8.948;2022-12-11T11:30:23;22.65;;;14.48;;
72273;SDS011;60208;48.692;8.948;2022-12-11T11:32:52;20.63;;;13.68;;
72273;SDS011;60208;48.692;8.948;2022-12-11T11:35:25;21.80;;;13.93;;
72273;SDS011;60208;48.692;8.948;2022-12-11T11:38:01;19.30;;;13.27;;
72273;SDS011;60208;48.692;8.948;2022-12-11T11:40:28;19.27;;;12.85;;
72273;SDS011;60208;48.692;8.948;2022-12-11T11:45:25;20.67;;;12.35;;
72273;SDS011;60208;48.692;8.948;2022-12-11T11:47:57;20.05;;;12.90;;
72273;SDS011;60208;48.692;8.948;2022-12-11T11:50:24;19.67;;;12.13;;
72273;SDS011;60208;48.692;8.948;2022-12-11T11:53:11;21.35;;;12.88;;
72273;SDS011;60208;48.692;8.948;2022-12-11T11:55:41;22.63;;;12.95;;
72273;SDS011;60208;48.692;8.948;2022-12-11T12:01:18;20.95;;;13.98;;
72273;SDS011;60208;48.692;8.948;2022-12-11T12:03:44;21.80;;;14.40;;
72273;SDS011;60208;48.692;8.948;2022-12-11T12:19:40;23.45;;;14.10;;
72273;SDS011;60208;48.692;8.948;2022-12-11T12:30:24;21.77;;;13.38;;
72273;SDS011;60208;48.692;8.948;2022-12-11T12:37:57;21.95;;;13.40;;
72273;SDS011;60208;48.692;8.948;2022-12-11T12:48:32;20.90;;;12.73;;
72273;SDS011;60208;48.692;8.948;2022-12-11T12:50:58;21.17;;;12.80;;
72273;SDS011;60208;48.692;8.948;2022-12-11T12:53:27;19.13;;;12.40;;
72273;SDS011;60208;48.692;8.948;2022-12-11T12:55:56;17.38;;;12.38;;
72273;SDS011;60208;48.692;8.948;2022-12-11T13:00:51;25.25;;;15.05;;
72273;SDS011;60208;48.692;8.948;2022-12-11T13:03:18;35.97;;;19.55;;
72273;SDS011;60208;48.692;8.948;2022-12-11T13:08:29;37.13;;;18.70;;
72273;SDS011;60208;48.692;8.948;2022-12-11T13:11:00;35.13;;;17.48;;
72273;SDS011;60208;48.692;8.948;2022-12-11T13:16:04;22.17;;;13.38;;
72273;SDS011;60208;48.692;8.948;2022-12-11T13:18:49;26.52;;;15.43;;
72273;SDS011;60208;48.692;8.948;2022-12-11T13:26:37;19.17;;;12.15;;
72273;SDS011;60208;48.692;8.948;2022-12-11T13:29:03;17.65;;;11.20;;
72273;SDS011;60208;48.692;8.948;2022-12-11T13:31:38;17.38;;;11.82;;
72273;SDS011;60208;48.692;8.948;2022-12-11T13:34:12;15.73;;;10.75;;
72273;SDS011;60208;48.692;8.948;2022-12-11T13:36:40;24.42;;;14.18;;
72273;SDS011;60208;48.692;8.948;2022-12-11T13:39:18;23.02;;;13.57;;
72273;SDS011;60208;48.692;8.948;2022-12-11T13:41:50;59.20;;;29.10;;
72273;SDS011;60208;48.692;8.948;2022-12-11T13:44:19;23.90;;;14.43;;
72273;SDS011;60208;48.692;8.948;2022-12-11T13:46:46;25.13;;;15.43;;
72273;SDS011;60208;48.692;8.948;2022-12-11T13:49:21;32.08;;;19.05;;
72273;SDS011;60208;48.692;8.948;2022-12-11T13:51:56;23.27;;;15.07;;
72273;SDS011;60208;48.692;8.948;2022-12-11T13:54:23;19.95;;;13.50;;
72273;SDS011;60208;48.692;8.948;2022-12-11T13:59:34;22.27;;;13.75;;
72273;SDS011;60208;48.692;8.948;2022-12-11T14:02:06;20.70;;;13.02;;
72273;SDS011;60208;48.692;8.948;2022-12-11T14:04:38;16.75;;;11.88;;
72273;SDS011;60208;48.692;8.948;2022-12-11T14:07:07;19.67;;;11.98;;
72273;SDS011;60208;48.692;8.948;2022-12-11T14:09:34;20.08;;;12.25;;
72273;SDS011;60208;48.692;8.948;2022-12-11T14:12:02;18.90;;;11.82;;
72273;SDS011;60208;48.692;8.948;2022-12-11T14:14:31;17.67;;;12.20;;
72273;SDS011;60208;48.692;8.948;2022-12-11T14:16:58;16.60;;;11.75;;
72273;SDS011;60208;48.692;8.948;2022-12-11T14:19:24;17.88;;;11.52;;
72273;SDS011;60208;48.692;8.948;2022-12-11T14:22:03;20.30;;;12.70;;
72273;SDS011;60208;48.692;8.948;2022-12-11T14:24:29;19.45;;;12.70;;
72273;SDS011;60208;48.692;8.948;2022-12-11T14:26:55;20.27;;;12.57;;
72273;SDS011;60208;48.692;8.948;2022-12-11T14:29:25;19.08;;;12.23;;
72273;SDS011;60208;48.692;8.948;2022-12-11T14:31:55;20.83;;;12.88;;
72273;SDS011;60208;48.692;8.948;2022-12-11T14:34:24;19.80;;;12.88;;
72273;SDS011;60208;48.692;8.948;2022-12-11T14:36:51;23.50;;;12.73;;
72273;SDS011;60208;48.692;8.948;2022-12-11T14:44:23;20.45;;;13.05;;
72273;SDS011;60208;48.692;8.948;2022-12-11T14:46:55;20.48;;;13.00;;
72273;SDS011;60208;48.692;8.948;2022-12-11T14:52:45;23.08;;;14.05;;
72273;SDS011;60208;48.692;8.948;2022-12-11T14:57:44;22.60;;;13.98;;
72273;SDS011;60208;48.692;8.948;2022-12-11T15:00:23;21.38;;;13.63;;
72273;SDS011;60208;48.692;8.948;2022-12-11T15:03:06;21.70;;;13.73;;
72273;SDS011;60208;48.692;8.948;2022-12-11T15:10:57;22.50;;;13.63;;
72273;SDS011;60208;48.692;8.948;2022-12-11T15:13:35;22.95;;;14.40;;
72273;SDS011;60208;48.692;8.948;2022-12-11T15:16:02;23.73;;;15.35;;
72273;SDS011;60208;48.692;8.948;2022-12-11T15:18:30;26.13;;;14.60;;
72273;SDS011;60208;48.692;8.948;2022-12-11T15:20:57;23.08;;;14.38;;
72273;SDS011;60208;48.692;8.948;2022-12-11T15:23:24;20.02;;;12.93;;
72273;SDS011;60208;48.692;8.948;2022-12-11T15:25:50;27.27;;;14.77;;
72273;SDS011;60208;48.692;8.948;2022-12-11T15:30:54;25.80;;;15.50;;
72273;SDS011;60208;48.692;8.948;2022-12-11T15:33:24;26.33;;;16.20;;
72273;SDS011;60208;48.692;8.948;2022-12-11T15:40:58;25.13;;;15.10;;
72273;SDS011;60208;48.692;8.948;2022-12-11T15:43:24;25.75;;;15.85;;
72273;SDS011;60208;48.692;8.948;2022-12-11T15:45:50;24.95;;;15.73;;
72273;SDS011;60208;48.692;8.948;2022-12-11T15:48:15;31.50;;;19.13;;
72273;SDS011;60208;48.692;8.948;2022-12-11T15:50:40;28.67;;;17.95;;
72273;SDS011;60208;48.692;8.948;2022-12-11T15:53:06;27.10;;;15.80;;
72273;SDS011;60208;48.692;8.948;2022-12-11T15:55:31;24.83;;;15.98;;
72273;SDS011;60208;48.692;8.948;2022-12-11T15:58:00;27.50;;;16.63;;
72273;SDS011;60208;48.692;8.948;2022-12-11T16:00:27;24.90;;;16.40;;
72273;SDS011;60208;48.692;8.948;2022-12-11T16:02:53;26.00;;;15.80;;
72273;SDS011;60208;48.692;8.948;2022-12-11T16:05:19;25.55;;;16.42;;
72273;SDS011;60208;48.692;8.948;2022-12-11T16:07:46;30.17;;;18.85;;
72273;SDS011;60208;48.692;8.948;2022-12-11T16:10:15;27.00;;;16.17;;
72273;SDS011;60208;48.692;8.948;2022-12-11T16:12:42;28.67;;;16.55;;
72273;SDS011;60208;48.692;8.948;2022-12-11T16:15:07;31.45;;;18.33;;
72273;SDS011;60208;48.692;8.948;2022-12-11T16:17:34;28.77;;;18.05;;
72273;SDS011;60208;48.692;8.948;2022-12-11T16:19:59;29.50;;;18.63;;